Time;durP1;ratioP1;P1;durP2;ratioP2;P2;SDS_P1;SDS_P2;PMS_P1;PMS_P2;Temp;Humidity;BMP_temperature;BMP_pressure;BME280_temperature;BME280_humidity;BME280_pressure;Samples;Min_cycle;Max_cycle;Signal;HPM_P1;HPM_P2
2022/08/08 00:02:27;;;;;;;;;;;17.10;65.70;;;;;;5054509;28;19968;-78
2022/08/08 00:05:16;;;;;;;;;;;17.00;65.40;;;;;;5050734;28;19917;-77
2022/08/08 00:07:41;;;;;;;;;;;17.00;65.70;;;;;;5050240;28;19928;-78
2022/08/08 00:10:29;;;;;;;;;;;17.00;66.00;;;;;;5049321;28;19913;-78
2022/08/08 00:13:02;;;;;;;;;;;17.00;66.50;;;;;;5048827;28;20010;-78
2022/08/08 00:15:30;;;;;;;;;;;16.90;67.20;;;;;;5051709;28;20316;-78
2022/08/08 00:18:00;;;;;;;;;;;16.80;66.80;;;;;;5052308;28;19913;-77
2022/08/08 00:20:45;;;;;;;;;;;16.80;66.60;;;;;;5051560;28;19936;-78
2022/08/08 00:23:15;;;;;;;;;;;16.80;67.10;;;;;;5051752;28;19963;-78
2022/08/08 00:25:46;;;;;;;;;;;16.80;67.10;;;;;;5121355;22;20315;-84
2022/08/08 00:28:13;;;;;;;;;;;16.70;68.10;;;;;;5077837;28;20010;-85
2022/08/08 00:30:42;;;;;;;;;;;16.60;68.40;;;;;;5086879;28;19948;-85
2022/08/08 00:33:07;;;;;;;;;;;16.60;67.10;;;;;;5089094;28;20007;-84
2022/08/08 00:35:40;;;;;;;;;;;16.60;66.90;;;;;;5076660;28;20015;-84
2022/08/08 00:38:14;;;;;;;;;;;16.60;67.80;;;;;;5053674;28;19912;-86
2022/08/08 00:40:47;;;;;;;;;;;16.60;67.60;;;;;;5090204;28;19972;-83
2022/08/08 00:43:32;;;;;;;;;;;16.60;66.80;;;;;;5065414;28;19916;-84
2022/08/08 00:46:16;;;;;;;;;;;16.60;67.40;;;;;;5067509;28;19916;-84
2022/08/08 00:49:01;;;;;;;;;;;16.60;67.80;;;;;;5066812;28;19917;-84
2022/08/08 00:51:46;;;;;;;;;;;16.50;68.10;;;;;;5083145;28;19946;-83
2022/08/08 00:54:30;;;;;;;;;;;16.40;68.50;;;;;;5073074;28;19923;-85
2022/08/08 00:57:02;;;;;;;;;;;16.50;68.80;;;;;;5050710;28;19913;-85
2022/08/08 00:59:28;;;;;;;;;;;16.50;68.20;;;;;;5037544;28;19924;-84
2022/08/08 01:02:02;;;;;;;;;;;16.50;68.10;;;;;;5052323;28;19909;-85
2022/08/08 01:04:42;;;;;;;;;;;16.50;67.90;;;;;;5049820;28;19912;-85
2022/08/08 01:07:26;;;;;;;;;;;16.50;68.00;;;;;;5071280;28;19912;-85
2022/08/08 01:09:55;;;;;;;;;;;16.50;67.90;;;;;;5084938;28;19923;-86
2022/08/08 01:12:40;;;;;;;;;;;16.50;68.20;;;;;;5066388;28;19928;-85
2022/08/08 01:15:21;;;;;;;;;;;16.40;69.40;;;;;;5055846;28;20086;-85
2022/08/08 01:18:05;;;;;;;;;;;16.30;69.10;;;;;;5062725;28;20017;-85
2022/08/08 01:20:38;;;;;;;;;;;16.30;68.90;;;;;;5050599;28;19920;-85
2022/08/08 01:23:06;;;;;;;;;;;16.30;69.10;;;;;;5042206;28;20390;-85
2022/08/08 01:25:47;;;;;;;;;;;16.30;68.40;;;;;;5059043;28;20135;-85
2022/08/08 01:28:16;;;;;;;;;;;16.30;68.50;;;;;;5040984;28;20418;-85
2022/08/08 01:30:47;;;;;;;;;;;16.20;69.20;;;;;;5059292;28;20061;-85
2022/08/08 01:33:13;;;;;;;;;;;16.30;69.00;;;;;;5047855;28;19951;-85
2022/08/08 01:35:57;;;;;;;;;;;16.20;69.40;;;;;;5071364;28;19924;-85
2022/08/08 01:38:28;;;;;;;;;;;16.20;69.50;;;;;;5053072;28;20375;-85
2022/08/08 01:41:13;;;;;;;;;;;16.20;69.70;;;;;;5053743;28;19913;-85
2022/08/08 01:43:58;;;;;;;;;;;16.10;69.10;;;;;;5080593;28;19938;-85
2022/08/08 01:46:44;;;;;;;;;;;16.00;70.20;;;;;;5055048;28;19924;-85
2022/08/08 01:49:17;;;;;;;;;;;16.10;69.50;;;;;;5076944;28;19901;-85
2022/08/08 01:51:42;;;;;;;;;;;16.00;70.50;;;;;;5052641;28;20003;-85
2022/08/08 01:54:27;;;;;;;;;;;16.00;70.30;;;;;;5058816;28;20061;-85
2022/08/08 01:57:07;;;;;;;;;;;16.00;70.50;;;;;;5059940;28;19919;-85
2022/08/08 01:59:32;;;;;;;;;;;16.00;70.40;;;;;;5065955;28;19972;-85
2022/08/08 02:02:21;;;;;;;;;;;15.90;70.90;;;;;;5059605;28;20012;-85
2022/08/08 02:04:56;;;;;;;;;;;15.80;71.50;;;;;;5064844;28;19912;-85
2022/08/08 02:07:25;;;;;;;;;;;15.80;70.80;;;;;;5075944;28;19919;-85
2022/08/08 02:09:50;;;;;;;;;;;15.80;71.50;;;;;;5079949;28;19985;-85
2022/08/08 02:12:29;;;;;;;;;;;15.90;71.30;;;;;;5064456;28;19925;-85
2022/08/08 02:14:59;;;;;;;;;;;15.80;71.30;;;;;;5058431;28;20349;-85
2022/08/08 02:17:26;;;;;;;;;;;15.80;71.90;;;;;;5063835;28;19921;-85
2022/08/08 02:19:56;;;;;;;;;;;15.90;71.20;;;;;;5058565;28;20291;-85
2022/08/08 02:22:42;;;;;;;;;;;15.90;70.90;;;;;;5061221;28;19974;-84
2022/08/08 02:25:20;;;;;;;;;;;15.80;71.20;;;;;;5046476;28;20359;-84
2022/08/08 02:27:55;;;;;;;;;;;15.80;71.50;;;;;;5064250;28;19912;-85
2022/08/08 02:30:24;;;;;;;;;;;15.60;72.10;;;;;;5049383;28;20294;-85
2022/08/08 02:36:21;;;;;;;;;;;15.60;72.10;;;;;;5099861;22;19928;-81
2022/08/08 02:38:58;;;;;;;;;;;15.60;71.70;;;;;;4997545;28;19912;-82
2022/08/08 02:41:24;;;;;;;;;;;15.60;71.70;;;;;;5060567;28;19919;-81
2022/08/08 02:44:10;;;;;;;;;;;15.60;71.50;;;;;;5069777;28;19913;-81
2022/08/08 02:46:44;;;;;;;;;;;15.50;71.90;;;;;;5076394;28;19916;-81
2022/08/08 02:49:16;;;;;;;;;;;15.40;72.50;;;;;;5083510;28;20020;-80
2022/08/08 02:51:41;;;;;;;;;;;15.30;73.40;;;;;;5053650;28;20003;-81
2022/08/08 02:54:12;;;;;;;;;;;15.30;73.20;;;;;;5048805;28;19956;-81
2022/08/08 02:56:57;;;;;;;;;;;15.20;73.90;;;;;;5065298;28;20535;-82
2022/08/08 02:59:25;;;;;;;;;;;15.30;73.90;;;;;;5074955;28;20436;-80
2022/08/08 03:02:20;;;;;;;;;;;15.30;73.80;;;;;;5078124;28;19951;-80
2022/08/08 03:04:51;;;;;;;;;;;15.20;74.10;;;;;;5071296;28;19916;-81
2022/08/08 03:07:22;;;;;;;;;;;15.30;74.00;;;;;;5065055;28;19956;-81
2022/08/08 03:09:48;;;;;;;;;;;15.30;73.90;;;;;;5063941;28;19924;-81
2022/08/08 03:12:43;;;;;;;;;;;15.30;73.20;;;;;;5064749;28;19921;-82
2022/08/08 03:15:14;;;;;;;;;;;15.40;72.80;;;;;;5055084;28;19952;-81
2022/08/08 03:17:43;;;;;;;;;;;15.30;72.70;;;;;;5067784;28;19913;-81
2022/08/08 03:20:12;;;;;;;;;;;15.20;72.50;;;;;;5072023;28;19938;-81
2022/08/08 03:22:48;;;;;;;;;;;15.10;73.20;;;;;;5071123;28;20053;-81
2022/08/08 03:25:14;;;;;;;;;;;15.00;73.60;;;;;;5081376;28;19921;-81
2022/08/08 03:27:43;;;;;;;;;;;15.00;73.80;;;;;;5076043;28;19912;-81
2022/08/08 03:30:11;;;;;;;;;;;15.00;73.70;;;;;;5046746;28;20276;-81
2022/08/08 03:35:22;;;;;;;;;;;14.90;74.40;;;;;;5077690;28;19931;-82
2022/08/08 03:37:47;;;;;;;;;;;14.80;74.80;;;;;;5077670;28;20389;-82
2022/08/08 03:40:13;;;;;;;;;;;14.80;75.00;;;;;;5077184;28;19943;-81
2022/08/08 03:42:40;;;;;;;;;;;14.80;75.00;;;;;;5093103;28;19912;-80
2022/08/08 03:45:19;;;;;;;;;;;14.80;74.90;;;;;;5090900;28;19917;-81
2022/08/08 03:47:54;;;;;;;;;;;14.80;75.10;;;;;;5072633;28;19909;-81
2022/08/08 03:50:20;;;;;;;;;;;14.80;75.10;;;;;;5057444;28;19919;-82
2022/08/08 03:52:45;;;;;;;;;;;14.70;75.60;;;;;;5071586;28;19913;-82
2022/08/08 03:55:13;;;;;;;;;;;14.80;75.70;;;;;;5065144;28;19956;-81
2022/08/08 03:58:05;;;;;;;;;;;14.80;75.50;;;;;;5076904;28;20444;-81
2022/08/08 04:00:31;;;;;;;;;;;14.80;76.00;;;;;;5048238;28;19913;-80
2022/08/08 04:03:00;;;;;;;;;;;14.70;76.30;;;;;;5051022;28;19913;-81
2022/08/08 04:05:27;;;;;;;;;;;14.60;76.80;;;;;;5065449;28;19967;-81
2022/08/08 04:07:53;;;;;;;;;;;14.70;76.90;;;;;;5055229;28;19917;-80
2022/08/08 04:10:19;;;;;;;;;;;14.80;77.00;;;;;;5063911;28;19969;-81
2022/08/08 04:12:44;;;;;;;;;;;14.80;76.60;;;;;;5079314;28;19913;-85
2022/08/08 04:15:10;;;;;;;;;;;14.80;76.00;;;;;;5075709;28;19956;-80
2022/08/08 04:17:35;;;;;;;;;;;14.90;75.60;;;;;;5059983;28;20291;-80
2022/08/08 04:20:01;;;;;;;;;;;14.90;75.60;;;;;;5057692;28;19912;-81
2022/08/08 04:22:27;;;;;;;;;;;14.90;75.40;;;;;;5049218;28;19948;-81
2022/08/08 04:24:53;;;;;;;;;;;14.90;75.10;;;;;;5047400;28;19912;-81
2022/08/08 04:27:19;;;;;;;;;;;14.90;75.00;;;;;;5048403;28;19917;-80
2022/08/08 04:29:45;;;;;;;;;;;14.90;74.90;;;;;;5067377;28;19938;-80
2022/08/08 04:32:13;;;;;;;;;;;14.80;75.40;;;;;;5081442;28;19915;-81
2022/08/08 04:34:39;;;;;;;;;;;14.80;75.80;;;;;;5062690;28;20033;-81
2022/08/08 04:37:04;;;;;;;;;;;14.70;76.40;;;;;;5087641;28;19920;-80
2022/08/08 04:39:30;;;;;;;;;;;14.80;76.80;;;;;;5079786;28;20383;-81
2022/08/08 04:41:55;;;;;;;;;;;14.70;77.20;;;;;;5059737;28;19916;-81
2022/08/08 04:44:21;;;;;;;;;;;14.80;77.10;;;;;;5062297;28;20007;-81
2022/08/08 04:46:46;;;;;;;;;;;14.90;76.90;;;;;;5039682;28;19939;-80
2022/08/08 04:49:12;;;;;;;;;;;14.80;76.90;;;;;;5045111;28;19917;-81
2022/08/08 04:51:37;;;;;;;;;;;14.90;76.90;;;;;;5060830;28;19919;-79
2022/08/08 04:54:03;;;;;;;;;;;15.00;77.50;;;;;;5050281;28;20343;-84
2022/08/08 04:56:29;;;;;;;;;;;14.90;77.60;;;;;;5062130;28;19912;-80
2022/08/08 04:58:54;;;;;;;;;;;14.90;77.30;;;;;;5069964;28;19912;-81
2022/08/08 05:01:20;;;;;;;;;;;15.00;76.80;;;;;;5055422;28;19919;-81
2022/08/08 05:03:45;;;;;;;;;;;15.00;76.20;;;;;;5052588;28;19921;-81
2022/08/08 05:06:11;;;;;;;;;;;15.10;75.80;;;;;;5049596;28;19959;-81
2022/08/08 05:08:36;;;;;;;;;;;15.10;76.50;;;;;;5044184;28;20316;-81
2022/08/08 05:11:02;;;;;;;;;;;15.10;77.00;;;;;;5056011;28;19917;-82
2022/08/08 05:13:27;;;;;;;;;;;15.10;77.10;;;;;;5045352;28;19916;-82
2022/08/08 05:15:53;;;;;;;;;;;15.20;77.50;;;;;;5049582;28;19999;-80
2022/08/08 05:18:18;;;;;;;;;;;15.20;77.40;;;;;;5058900;28;19943;-81
2022/08/08 05:20:44;;;;;;;;;;;15.30;77.40;;;;;;5044850;28;19913;-81
2022/08/08 05:23:09;;;;;;;;;;;15.30;77.50;;;;;;5046351;28;19916;-80
2022/08/08 05:25:36;;;;;;;;;;;15.40;77.50;;;;;;5055147;28;19916;-82
2022/08/08 05:28:01;;;;;;;;;;;15.50;77.60;;;;;;5081489;28;19916;-81
2022/08/08 05:30:27;;;;;;;;;;;15.50;76.90;;;;;;5063679;28;19952;-80
2022/08/08 05:32:52;;;;;;;;;;;15.60;76.80;;;;;;5078149;28;19948;-81
2022/08/08 05:35:20;;;;;;;;;;;15.70;76.00;;;;;;5072220;28;19924;-81
2022/08/08 05:38:06;;;;;;;;;;;15.70;75.80;;;;;;5053967;28;20343;-82
2022/08/08 05:40:35;;;;;;;;;;;15.90;75.20;;;;;;5073729;28;19961;-80
2022/08/08 05:43:02;;;;;;;;;;;15.90;74.40;;;;;;5052927;28;19913;-81
2022/08/08 05:45:30;;;;;;;;;;;16.00;75.50;;;;;;5045154;28;19923;-82
2022/08/08 05:47:55;;;;;;;;;;;16.00;75.80;;;;;;5051106;28;19913;-84
2022/08/08 05:50:22;;;;;;;;;;;16.10;74.60;;;;;;5037863;28;20492;-80
2022/08/08 05:52:48;;;;;;;;;;;16.10;74.70;;;;;;5048769;28;19913;-81
2022/08/08 05:55:13;;;;;;;;;;;16.10;74.20;;;;;;5054392;28;20270;-79
2022/08/08 05:57:39;;;;;;;;;;;16.10;74.20;;;;;;5049708;28;19916;-79
2022/08/08 06:00:06;;;;;;;;;;;16.10;74.20;;;;;;5053081;28;20269;-79
2022/08/08 06:05:17;;;;;;;;;;;16.30;73.60;;;;;;5073873;28;19924;-79
2022/08/08 06:07:45;;;;;;;;;;;16.40;73.90;;;;;;5058391;28;19912;-80
2022/08/08 06:10:10;;;;;;;;;;;16.50;74.30;;;;;;5047617;28;19921;-79
2022/08/08 06:12:36;;;;;;;;;;;16.50;73.50;;;;;;5064324;28;20339;-79
2022/08/08 06:15:03;;;;;;;;;;;16.60;73.10;;;;;;5079063;28;20424;-78
2022/08/08 06:17:30;;;;;;;;;;;16.70;71.80;;;;;;5073035;28;19909;-79
2022/08/08 06:19:56;;;;;;;;;;;16.90;70.80;;;;;;5075347;28;19916;-79
2022/08/08 06:22:22;;;;;;;;;;;17.00;70.40;;;;;;5063550;28;19913;-79
2022/08/08 06:24:47;;;;;;;;;;;17.30;70.30;;;;;;5098513;22;19936;-78
2022/08/08 06:27:15;;;;;;;;;;;17.60;68.40;;;;;;5052214;28;20384;-78
2022/08/08 06:29:44;;;;;;;;;;;17.80;68.30;;;;;;5048064;28;20049;-78
2022/08/08 06:32:13;;;;;;;;;;;18.00;67.00;;;;;;5073132;28;20400;-78
2022/08/08 06:34:42;;;;;;;;;;;17.70;67.90;;;;;;5070809;28;19985;-78
2022/08/08 06:37:07;;;;;;;;;;;17.60;67.90;;;;;;5071827;28;19916;-78
2022/08/08 06:39:33;;;;;;;;;;;17.40;69.00;;;;;;5053109;28;19913;-78
2022/08/08 06:42:01;;;;;;;;;;;17.50;68.20;;;;;;5058639;28;20316;-78
2022/08/08 06:44:26;;;;;;;;;;;17.30;68.70;;;;;;5052848;28;19991;-78
2022/08/08 06:46:52;;;;;;;;;;;17.30;68.80;;;;;;5071044;28;20376;-78
2022/08/08 06:49:18;;;;;;;;;;;17.10;69.50;;;;;;5069335;28;20380;-79
2022/08/08 06:51:44;;;;;;;;;;;17.10;70.10;;;;;;5072229;28;20019;-78
2022/08/08 06:54:10;;;;;;;;;;;17.10;70.90;;;;;;5067297;28;19925;-78
2022/08/08 06:56:36;;;;;;;;;;;17.10;71.50;;;;;;5068556;28;19988;-78
2022/08/08 06:59:02;;;;;;;;;;;17.10;70.80;;;;;;5049340;28;20400;-78
2022/08/08 07:01:29;;;;;;;;;;;17.20;70.20;;;;;;5050587;28;19913;-78
2022/08/08 07:03:59;;;;;;;;;;;17.30;70.60;;;;;;5073563;28;19963;-79
2022/08/08 07:06:27;;;;;;;;;;;17.30;70.30;;;;;;5066025;28;20387;-79
2022/08/08 07:08:55;;;;;;;;;;;17.30;71.00;;;;;;5072114;28;20283;-78
2022/08/08 07:11:24;;;;;;;;;;;17.40;70.90;;;;;;5072572;28;19912;-78
2022/08/08 07:13:52;;;;;;;;;;;17.50;70.60;;;;;;5039721;28;19913;-79
2022/08/08 07:16:26;;;;;;;;;;;17.50;70.90;;;;;;5052052;28;21071;-79
2022/08/08 07:18:52;;;;;;;;;;;17.50;70.80;;;;;;5057154;28;20354;-79
2022/08/08 07:21:21;;;;;;;;;;;17.50;70.70;;;;;;5056555;28;19928;-81
2022/08/08 07:23:53;;;;;;;;;;;17.70;70.50;;;;;;5045890;28;19916;-78
2022/08/08 07:26:20;;;;;;;;;;;17.70;69.80;;;;;;5058911;28;19913;-79
2022/08/08 07:28:46;;;;;;;;;;;18.00;69.30;;;;;;5066573;28;19912;-79
2022/08/08 07:31:12;;;;;;;;;;;18.00;69.10;;;;;;5070126;28;20011;-78
2022/08/08 07:33:38;;;;;;;;;;;18.10;68.90;;;;;;5063108;28;19960;-79
2022/08/08 07:36:06;;;;;;;;;;;18.10;67.90;;;;;;5068986;28;19916;-78
2022/08/08 07:38:32;;;;;;;;;;;18.00;68.70;;;;;;5065370;28;19936;-78
2022/08/08 07:40:58;;;;;;;;;;;18.10;68.10;;;;;;5071456;28;19989;-78
2022/08/08 07:43:23;;;;;;;;;;;18.10;68.50;;;;;;5067302;28;19961;-79
2022/08/08 07:45:49;;;;;;;;;;;18.10;69.30;;;;;;5068640;28;20013;-78
2022/08/08 07:48:14;;;;;;;;;;;18.20;68.30;;;;;;5064089;28;19920;-79
2022/08/08 07:50:41;;;;;;;;;;;18.30;67.30;;;;;;5051899;28;19935;-81
2022/08/08 07:53:30;;;;;;;;;;;18.40;65.30;;;;;;5070504;28;19916;-79
2022/08/08 07:55:59;;;;;;;;;;;18.50;65.30;;;;;;5037936;28;19935;-80
2022/08/08 07:58:34;;;;;;;;;;;18.50;66.40;;;;;;5068764;28;19912;-81
2022/08/08 08:01:04;;;;;;;;;;;18.50;66.50;;;;;;5064236;28;19924;-80
2022/08/08 08:03:40;;;;;;;;;;;18.70;65.50;;;;;;5064415;28;19958;-81
2022/08/08 08:06:07;;;;;;;;;;;18.60;66.40;;;;;;5063653;28;19958;-79
2022/08/08 08:09:08;;;;;;;;;;;18.60;66.40;;;;;;5044645;28;19920;-79
2022/08/08 08:11:35;;;;;;;;;;;18.70;66.50;;;;;;4982699;28;20713;-79
2022/08/08 08:14:05;;;;;;;;;;;18.80;67.00;;;;;;5048003;28;20837;-79
2022/08/08 08:16:34;;;;;;;;;;;18.90;66.30;;;;;;5056527;28;19991;-78
2022/08/08 08:19:00;;;;;;;;;;;19.00;64.30;;;;;;5068328;28;20432;-78
2022/08/08 08:21:31;;;;;;;;;;;19.00;63.60;;;;;;5053911;28;19917;-81
2022/08/08 08:23:56;;;;;;;;;;;19.10;63.30;;;;;;5057689;28;19917;-78
2022/08/08 08:26:24;;;;;;;;;;;19.20;63.80;;;;;;5067289;28;19926;-78
2022/08/08 08:28:49;;;;;;;;;;;19.20;63.50;;;;;;5060870;28;20281;-79
2022/08/08 08:31:15;;;;;;;;;;;19.50;62.00;;;;;;5053525;28;19966;-78
2022/08/08 08:33:40;;;;;;;;;;;19.60;61.70;;;;;;5056677;28;20381;-76
2022/08/08 08:36:07;;;;;;;;;;;19.50;62.10;;;;;;5040641;28;19924;-78
2022/08/08 08:38:32;;;;;;;;;;;19.60;62.00;;;;;;5048347;28;20364;-78
2022/08/08 08:40:58;;;;;;;;;;;19.60;62.50;;;;;;5035893;28;19971;-77
2022/08/08 08:43:24;;;;;;;;;;;19.60;62.40;;;;;;5048491;28;19919;-79
2022/08/08 08:45:52;;;;;;;;;;;19.50;61.10;;;;;;5049658;28;21934;-78
2022/08/08 08:48:18;;;;;;;;;;;19.80;60.20;;;;;;5060698;28;19920;-78
2022/08/08 08:50:46;;;;;;;;;;;19.90;60.00;;;;;;5055938;28;19913;-79
2022/08/08 08:53:12;;;;;;;;;;;19.90;60.00;;;;;;5052959;28;19924;-79
2022/08/08 08:55:38;;;;;;;;;;;20.00;58.80;;;;;;5039179;28;20369;-78
2022/08/08 08:58:08;;;;;;;;;;;20.10;58.40;;;;;;5060897;28;20002;-78
2022/08/08 09:00:35;;;;;;;;;;;20.20;57.80;;;;;;5053731;28;19913;-78
2022/08/08 09:03:04;;;;;;;;;;;20.20;57.70;;;;;;5060978;28;20373;-78
2022/08/08 09:05:30;;;;;;;;;;;20.10;58.50;;;;;;5050393;28;20395;-79
2022/08/08 09:07:57;;;;;;;;;;;20.50;57.60;;;;;;5061504;28;19948;-77
2022/08/08 09:10:26;;;;;;;;;;;20.50;57.50;;;;;;5068522;28;20387;-78
2022/08/08 09:12:52;;;;;;;;;;;20.50;58.00;;;;;;5054107;28;19932;-79
2022/08/08 09:15:18;;;;;;;;;;;20.60;55.40;;;;;;5041638;28;19926;-78
2022/08/08 09:17:43;;;;;;;;;;;20.60;55.00;;;;;;5066366;28;19919;-79
2022/08/08 09:20:10;;;;;;;;;;;20.50;56.80;;;;;;5044435;28;20075;-80
2022/08/08 09:22:35;;;;;;;;;;;20.70;55.10;;;;;;5039674;28;19944;-80
2022/08/08 09:25:01;;;;;;;;;;;20.70;55.90;;;;;;5051614;28;20376;-82
2022/08/08 09:27:27;;;;;;;;;;;20.50;56.40;;;;;;5064542;28;19980;-80
2022/08/08 09:30:13;;;;;;;;;;;20.70;56.70;;;;;;5048219;28;19927;-80
2022/08/08 09:32:42;;;;;;;;;;;20.80;56.20;;;;;;5054359;28;20005;-79
2022/08/08 09:35:11;;;;;;;;;;;20.90;55.60;;;;;;5059030;28;20361;-82
2022/08/08 09:37:47;;;;;;;;;;;21.10;55.90;;;;;;5048729;28;19920;-81
2022/08/08 09:40:14;;;;;;;;;;;21.10;55.00;;;;;;5043752;28;19913;-81
2022/08/08 09:42:41;;;;;;;;;;;21.10;55.00;;;;;;5060141;28;20379;-81
2022/08/08 09:45:09;;;;;;;;;;;21.10;55.80;;;;;;5055151;28;20336;-79
2022/08/08 09:47:36;;;;;;;;;;;21.10;55.60;;;;;;5070990;28;19964;-80
2022/08/08 09:50:04;;;;;;;;;;;21.10;55.70;;;;;;5065666;28;20440;-80
2022/08/08 09:52:30;;;;;;;;;;;21.20;54.60;;;;;;5071061;28;19918;-80
2022/08/08 09:54:56;;;;;;;;;;;21.40;54.70;;;;;;5055599;28;19924;-80
2022/08/08 09:57:40;;;;;;;;;;;21.50;53.90;;;;;;5058055;28;20013;-80
2022/08/08 10:00:08;;;;;;;;;;;21.60;53.90;;;;;;5069955;28;19912;-79
2022/08/08 10:02:35;;;;;;;;;;;21.50;53.70;;;;;;5077844;28;19923;-79
2022/08/08 10:05:02;;;;;;;;;;;21.40;54.30;;;;;;5075535;28;19912;-80
2022/08/08 10:07:28;;;;;;;;;;;21.40;55.10;;;;;;5082403;28;19909;-80
2022/08/08 10:09:53;;;;;;;;;;;21.60;53.50;;;;;;5069074;28;19917;-81
2022/08/08 10:12:28;;;;;;;;;;;21.50;54.70;;;;;;5064143;28;19912;-81
2022/08/08 10:14:58;;;;;;;;;;;21.50;54.40;;;;;;5067175;28;19963;-82
2022/08/08 10:17:23;;;;;;;;;;;21.60;53.40;;;;;;5054390;28;19912;-80
2022/08/08 10:19:52;;;;;;;;;;;21.80;51.80;;;;;;5064002;28;20369;-81
2022/08/08 10:22:19;;;;;;;;;;;21.80;52.20;;;;;;5063219;28;19920;-82
2022/08/08 10:24:45;;;;;;;;;;;21.90;53.10;;;;;;5073897;28;19928;-82
2022/08/08 10:27:11;;;;;;;;;;;22.00;51.80;;;;;;5069539;28;20021;-81
2022/08/08 10:29:54;;;;;;;;;;;22.10;50.50;;;;;;5061842;28;19932;-80
2022/08/08 10:32:31;;;;;;;;;;;22.20;50.40;;;;;;5065909;28;20494;-82
2022/08/08 10:34:59;;;;;;;;;;;22.10;50.50;;;;;;5054070;28;19956;-81
2022/08/08 10:37:29;;;;;;;;;;;22.10;52.30;;;;;;5085495;28;19931;-83
2022/08/08 10:39:55;;;;;;;;;;;22.10;49.40;;;;;;5055315;28;20001;-82
2022/08/08 10:42:29;;;;;;;;;;;22.30;47.90;;;;;;5052198;28;19912;-82
2022/08/08 10:44:59;;;;;;;;;;;22.30;47.60;;;;;;5056313;28;20270;-82
2022/08/08 10:47:25;;;;;;;;;;;22.50;48.30;;;;;;5060150;28;20412;-82
2022/08/08 10:49:52;;;;;;;;;;;22.70;47.90;;;;;;5069727;28;19916;-82
2022/08/08 10:52:31;;;;;;;;;;;22.60;48.30;;;;;;5076790;28;20312;-81
2022/08/08 10:55:01;;;;;;;;;;;22.50;50.20;;;;;;5070412;28;20043;-82
2022/08/08 10:57:26;;;;;;;;;;;22.40;48.20;;;;;;5055116;28;19966;-82
2022/08/08 10:59:56;;;;;;;;;;;22.50;47.80;;;;;;5048772;28;19913;-85
2022/08/08 11:02:23;;;;;;;;;;;22.40;48.10;;;;;;5061362;28;20003;-81
2022/08/08 11:04:48;;;;;;;;;;;22.40;48.80;;;;;;5060999;28;19916;-83
2022/08/08 11:07:23;;;;;;;;;;;22.30;48.70;;;;;;5067863;28;19912;-83
2022/08/08 11:09:48;;;;;;;;;;;22.30;48.60;;;;;;5071797;28;19919;-82
2022/08/08 11:12:14;;;;;;;;;;;22.40;46.10;;;;;;5050484;28;19913;-83
2022/08/08 11:14:54;;;;;;;;;;;22.50;46.80;;;;;;5053018;28;20009;-82
2022/08/08 11:17:21;;;;;;;;;;;22.50;46.80;;;;;;5074650;28;19916;-82
2022/08/08 11:19:47;;;;;;;;;;;22.70;46.90;;;;;;5073571;28;19923;-82
2022/08/08 11:22:14;;;;;;;;;;;22.60;47.50;;;;;;5068383;28;19916;-83
2022/08/08 11:24:41;;;;;;;;;;;22.50;47.80;;;;;;5042441;28;19947;-83
2022/08/08 11:27:07;;;;;;;;;;;22.80;47.60;;;;;;5075983;28;19974;-83
2022/08/08 11:29:34;;;;;;;;;;;22.90;45.30;;;;;;5070174;28;20184;-83
2022/08/08 11:32:01;;;;;;;;;;;22.80;46.60;;;;;;5067692;28;19912;-82
2022/08/08 11:34:31;;;;;;;;;;;22.80;45.40;;;;;;5052334;28;19920;-83
2022/08/08 11:36:57;;;;;;;;;;;22.90;45.40;;;;;;5050878;28;20130;-83
2022/08/08 11:39:22;;;;;;;;;;;23.00;46.30;;;;;;5050396;28;19919;-82
2022/08/08 11:41:49;;;;;;;;;;;23.00;45.70;;;;;;5066782;28;20292;-83
2022/08/08 11:44:15;;;;;;;;;;;23.00;44.90;;;;;;5073339;28;20053;-83
2022/08/08 11:46:41;;;;;;;;;;;23.10;43.70;;;;;;5074127;28;19944;-82
2022/08/08 11:49:07;;;;;;;;;;;23.10;44.70;;;;;;5075155;28;20090;-83
2022/08/08 11:51:33;;;;;;;;;;;23.00;44.50;;;;;;5064998;28;19936;-83
2022/08/08 11:53:59;;;;;;;;;;;22.80;45.20;;;;;;5069655;28;19925;-84
2022/08/08 11:56:30;;;;;;;;;;;22.80;46.30;;;;;;5050251;28;19912;-83
2022/08/08 11:59:03;;;;;;;;;;;22.80;46.50;;;;;;5071656;28;19913;-83
2022/08/08 12:01:29;;;;;;;;;;;22.90;47.20;;;;;;5054166;28;19916;-83
2022/08/08 12:03:55;;;;;;;;;;;23.10;46.20;;;;;;5058519;28;19970;-83
2022/08/08 12:06:21;;;;;;;;;;;23.00;46.60;;;;;;5074624;28;19919;-82
2022/08/08 12:08:47;;;;;;;;;;;23.10;46.80;;;;;;5070533;28;20066;-84
2022/08/08 12:11:13;;;;;;;;;;;23.20;46.30;;;;;;5055007;28;19912;-83
2022/08/08 12:13:39;;;;;;;;;;;23.30;45.10;;;;;;5074908;28;19916;-83
2022/08/08 12:16:09;;;;;;;;;;;23.30;45.00;;;;;;5056825;28;20005;-82
2022/08/08 12:18:48;;;;;;;;;;;23.30;45.50;;;;;;5050644;28;19927;-81
2022/08/08 12:21:33;;;;;;;;;;;23.40;45.80;;;;;;5060486;28;19913;-81
2022/08/08 12:24:11;;;;;;;;;;;23.20;45.80;;;;;;5069385;28;20344;-80
2022/08/08 12:26:36;;;;;;;;;;;23.40;44.90;;;;;;5114300;22;20271;-83
2022/08/08 12:29:22;;;;;;;;;;;23.40;45.40;;;;;;5065333;28;19939;-83
2022/08/08 12:31:59;;;;;;;;;;;23.60;43.90;;;;;;5092490;28;19946;-83
2022/08/08 12:34:44;;;;;;;;;;;23.90;44.10;;;;;;5073303;28;19916;-83
2022/08/08 12:37:16;;;;;;;;;;;23.80;44.00;;;;;;5065327;28;19970;-81
2022/08/08 12:39:42;;;;;;;;;;;23.70;43.40;;;;;;5064712;28;19913;-81
2022/08/08 12:42:07;;;;;;;;;;;23.70;44.60;;;;;;5070553;28;20051;-81
2022/08/08 12:44:35;;;;;;;;;;;23.90;44.10;;;;;;5060016;28;19934;-82
2022/08/08 12:47:01;;;;;;;;;;;24.00;43.70;;;;;;5081939;28;19909;-81
2022/08/08 12:49:27;;;;;;;;;;;24.00;43.10;;;;;;5073597;28;19908;-83
2022/08/08 12:51:53;;;;;;;;;;;23.90;44.50;;;;;;5086358;28;19926;-83
2022/08/08 12:54:20;;;;;;;;;;;24.00;44.30;;;;;;5081059;28;19916;-85
2022/08/08 12:56:45;;;;;;;;;;;24.10;44.70;;;;;;5062994;28;19913;-83
2022/08/08 12:59:16;;;;;;;;;;;24.30;44.20;;;;;;5050438;28;19946;-82
2022/08/08 13:01:48;;;;;;;;;;;24.40;44.20;;;;;;5068089;28;19927;-83
2022/08/08 13:04:14;;;;;;;;;;;24.40;44.40;;;;;;5044434;28;19916;-84
2022/08/08 13:06:50;;;;;;;;;;;24.30;43.50;;;;;;5040633;28;19939;-83
2022/08/08 13:09:16;;;;;;;;;;;24.30;44.50;;;;;;5104418;28;19938;-83
2022/08/08 13:11:52;;;;;;;;;;;24.40;43.10;;;;;;5101726;28;19908;-83
2022/08/08 13:14:17;;;;;;;;;;;24.30;44.00;;;;;;5090223;28;20021;-83
2022/08/08 13:16:44;;;;;;;;;;;24.50;43.40;;;;;;5070813;28;19964;-82
2022/08/08 13:19:09;;;;;;;;;;;24.50;44.30;;;;;;5055036;28;19917;-83
2022/08/08 13:21:42;;;;;;;;;;;24.60;44.20;;;;;;5053078;28;19916;-84
2022/08/08 13:24:07;;;;;;;;;;;24.60;42.90;;;;;;5055440;28;19913;-83
2022/08/08 13:26:33;;;;;;;;;;;24.60;42.50;;;;;;5065633;28;19917;-83
2022/08/08 13:29:06;;;;;;;;;;;24.60;43.70;;;;;;5061119;28;19916;-84
2022/08/08 13:31:32;;;;;;;;;;;24.70;42.60;;;;;;5092939;28;19912;-82
2022/08/08 13:33:58;;;;;;;;;;;24.50;44.10;;;;;;5083299;28;20018;-84
2022/08/08 13:36:29;;;;;;;;;;;24.50;43.10;;;;;;5073753;28;20389;-83
2022/08/08 13:38:57;;;;;;;;;;;24.30;42.40;;;;;;5071855;28;19920;-84
2022/08/08 13:41:28;;;;;;;;;;;24.20;43.30;;;;;;5049319;28;19912;-84
2022/08/08 13:43:54;;;;;;;;;;;24.50;43.70;;;;;;5076294;28;20394;-84
2022/08/08 13:46:19;;;;;;;;;;;24.50;44.40;;;;;;5083042;28;19919;-83
2022/08/08 13:48:45;;;;;;;;;;;24.50;43.80;;;;;;5091180;28;19971;-83
2022/08/08 13:51:11;;;;;;;;;;;24.50;43.50;;;;;;5056938;28;19924;-83
2022/08/08 13:53:39;;;;;;;;;;;24.40;44.20;;;;;;5055743;28;19916;-83
2022/08/08 13:56:07;;;;;;;;;;;24.20;44.50;;;;;;5056690;28;19963;-83
2022/08/08 13:58:33;;;;;;;;;;;24.20;44.10;;;;;;5060052;28;19920;-83
2022/08/08 14:01:13;;;;;;;;;;;24.30;43.90;;;;;;5058846;28;19912;-83
2022/08/08 14:03:39;;;;;;;;;;;24.40;43.60;;;;;;5058500;28;19909;-83
2022/08/08 14:06:07;;;;;;;;;;;24.30;44.60;;;;;;5084915;28;19927;-81
2022/08/08 14:08:41;;;;;;;;;;;24.50;44.30;;;;;;5064209;28;20302;-84
2022/08/08 14:11:06;;;;;;;;;;;24.50;44.40;;;;;;5049618;28;19920;-83
2022/08/08 14:13:32;;;;;;;;;;;24.20;44.90;;;;;;5056118;28;19917;-84
2022/08/08 14:16:02;;;;;;;;;;;24.10;45.80;;;;;;5060971;28;20399;-83
2022/08/08 14:18:27;;;;;;;;;;;24.10;44.70;;;;;;5065510;28;20410;-83
2022/08/08 14:21:00;;;;;;;;;;;24.10;44.00;;;;;;5070152;28;19912;-83
2022/08/08 14:23:25;;;;;;;;;;;24.00;45.80;;;;;;5075288;28;19913;-83
2022/08/08 14:25:55;;;;;;;;;;;24.10;44.40;;;;;;5073443;28;19920;-82
2022/08/08 14:28:22;;;;;;;;;;;24.30;43.90;;;;;;5060280;28;19916;-84
2022/08/08 14:30:47;;;;;;;;;;;24.50;43.60;;;;;;5060619;28;20303;-82
2022/08/08 14:33:26;;;;;;;;;;;24.60;43.60;;;;;;5051222;28;19915;-83
2022/08/08 14:36:01;;;;;;;;;;;24.50;43.80;;;;;;5074855;28;20379;-82
2022/08/08 14:38:34;;;;;;;;;;;24.40;43.70;;;;;;5084537;28;19908;-85
2022/08/08 14:41:09;;;;;;;;;;;24.40;44.60;;;;;;5085161;28;19904;-83